Time;durP1;ratioP1;P1;durP2;ratioP2;P2;SDS_P1;SDS_P2;PMS_P1;PMS_P2;Temp;Humidity;BMP_temperature;BMP_pressure;BME280_temperature;BME280_humidity;BME280_pressure;Samples;Min_cycle;Max_cycle;Signal;HPM_P1;HPM_P2
2022/05/19 00:00:29;;;;;;;4.53;1.80;;;;;;;15.37;58.98;100746.88;10564088;28;20066;-79
2022/05/19 00:05:31;;;;;;;2.42;2.08;;;;;;;15.18;59.70;100746.72;10576129;28;20047;-80
2022/05/19 00:10:33;;;;;;;2.53;1.55;;;;;;;15.17;59.07;100746.78;10575924;28;20035;-80
2022/05/19 00:15:37;;;;;;;2.97;1.80;;;;;;;15.17;58.47;100739.72;10495194;28;20055;-79
2022/05/19 00:20:40;;;;;;;2.83;1.70;;;;;;;15.04;58.56;100738.47;10494133;28;20044;-78
2022/05/19 00:25:42;;;;;;;3.55;1.33;;;;;;;15.06;58.47;100734.00;10474480;28;20048;-78
2022/05/19 00:30:44;;;;;;;5.13;1.65;;;;;;;14.89;59.95;100734.63;10470578;28;20078;-77
2022/05/19 00:35:45;;;;;;;2.00;1.80;;;;;;;14.95;59.32;100734.38;10559247;28;20040;-78
2022/05/19 00:40:51;;;;;;;2.08;1.60;;;;;;;15.00;58.56;100737.72;10565437;28;20040;-79
2022/05/19 00:46:02;;;;;;;1.83;1.65;;;;;;;14.93;58.72;100727.44;10560617;28;20048;-77
2022/05/19 00:51:07;;;;;;;3.15;1.70;;;;;;;14.87;59.03;100736.47;10557087;28;20070;-78
2022/05/19 00:56:15;;;;;;;2.10;1.80;;;;;;;15.01;57.78;100728.88;10564341;28;20047;-78
2022/05/19 01:01:18;;;;;;;3.67;2.13;;;;;;;14.93;57.84;100723.00;10565612;28;20040;-78
2022/05/19 01:06:21;;;;;;;1.65;1.55;;;;;;;14.87;57.97;100723.22;10478063;28;20056;-78
2022/05/19 01:11:23;;;;;;;2.53;1.48;;;;;;;14.86;57.67;100721.50;10565497;28;20069;-78
2022/05/19 01:16:25;;;;;;;3.30;1.70;;;;;;;14.70;58.17;100726.53;10473533;28;20044;-78
2022/05/19 01:21:29;;;;;;;3.35;1.80;;;;;;;14.75;58.17;100714.00;10561829;28;20090;-79
2022/05/19 01:26:31;;;;;;;3.00;1.60;;;;;;;14.74;57.77;100711.38;10556082;28;20051;-80
2022/05/19 01:31:45;;;;;;;3.05;1.42;;;;;;;14.57;58.04;100710.25;10557157;28;20051;-80
2022/05/19 01:36:46;;;;;;;2.30;1.90;;;;;;;14.77;57.31;100708.63;10470696;28;20056;-79
2022/05/19 01:42:21;;;;;;;2.40;1.95;;;;;;;14.73;56.93;100715.81;10477983;28;20070;-79
2022/05/19 01:47:37;;;;;;;3.40;1.60;;;;;;;14.58;57.85;100705.84;10562272;28;20042;-79
2022/05/19 01:52:52;;;;;;;3.28;1.67;;;;;;;14.45;58.15;100702.75;10566062;28;20051;-80
2022/05/19 01:58:02;;;;;;;2.85;2.08;;;;;;;14.53;57.06;100703.34;10564955;28;20040;-79
2022/05/19 02:03:19;;;;;;;1.88;1.33;;;;;;;14.47;57.21;100703.53;10563350;28;20047;-79
2022/05/19 02:08:30;;;;;;;2.22;1.45;;;;;;;14.35;58.00;100698.72;10562865;28;20044;-79
2022/05/19 02:13:33;;;;;;;1.67;1.45;;;;;;;14.35;57.60;100696.06;10568437;28;20097;-81
2022/05/19 02:18:34;;;;;;;3.78;1.80;;;;;;;14.26;58.53;100693.78;10565425;28;20044;-81
2022/05/19 02:23:40;;;;;;;2.80;1.30;;;;;;;14.11;58.68;100688.09;10480356;28;20070;-81
2022/05/19 02:28:55;;;;;;;1.52;1.42;;;;;;;14.22;58.04;100686.88;10559662;28;20052;-80
2022/05/19 02:33:57;;;;;;;2.53;1.42;;;;;;;14.14;59.04;100681.84;10472815;28;20042;-80
2022/05/19 02:38:59;;;;;;;2.00;1.67;;;;;;;14.08;58.01;100687.38;10472936;28;20055;-80
2022/05/19 02:44:00;;;;;;;2.33;1.90;;;;;;;14.01;58.63;100693.78;10470977;28;20040;-80
2022/05/19 02:49:02;;;;;;;3.72;1.52;;;;;;;13.88;58.95;100694.19;10555970;28;20052;-78
2022/05/19 02:54:03;;;;;;;3.17;1.42;;;;;;;13.90;59.25;100691.53;10556209;28;20119;-77
2022/05/19 02:59:05;;;;;;;2.33;1.60;;;;;;;13.90;59.40;100699.47;10556436;28;20097;-77
2022/05/19 03:04:07;;;;;;;2.00;1.60;;;;;;;13.90;59.46;100696.81;10468591;28;20047;-77
2022/05/19 03:09:09;;;;;;;2.78;1.70;;;;;;;13.80;59.53;100698.03;10557954;28;20084;-78
2022/05/19 03:14:10;;;;;;;2.33;1.33;;;;;;;13.77;59.41;100706.94;10584585;28;20094;-80
2022/05/19 03:19:14;;;;;;;2.20;1.60;;;;;;;13.74;59.47;100707.03;10575303;28;20044;-79
2022/05/19 03:24:16;;;;;;;3.22;1.60;;;;;;;13.77;58.99;100714.00;10562321;28;20040;-79
2022/05/19 03:29:17;;;;;;;2.63;1.70;;;;;;;13.71;59.84;100727.41;10565943;28;20068;-79
2022/05/19 03:34:20;;;;;;;1.48;1.33;;;;;;;13.70;59.55;100720.41;10480681;28;20044;-79
2022/05/19 03:39:22;;;;;;;4.35;1.80;;;;;;;13.78;59.43;100728.94;10577534;28;20040;-79
2022/05/19 03:44:24;;;;;;;3.03;1.60;;;;;;;13.78;59.72;100727.16;10563758;28;20037;-77
2022/05/19 03:49:26;;;;;;;3.30;1.70;;;;;;;13.77;59.20;100719.28;10566165;28;20040;-78
2022/05/19 03:54:28;;;;;;;2.22;1.63;;;;;;;13.80;59.10;100719.16;10560814;28;20387;-78
2022/05/19 03:59:29;;;;;;;2.25;1.45;;;;;;;13.76;59.22;100731.63;10476246;28;20040;-77
2022/05/19 04:04:31;;;;;;;7.82;1.50;;;;;;;13.77;59.30;100735.16;10562211;28;20097;-78
2022/05/19 04:09:32;;;;;;;2.70;1.80;;;;;;;13.88;59.36;100732.97;10482227;28;20074;-76
2022/05/19 04:14:34;;;;;;;2.25;1.58;;;;;;;13.81;59.93;100729.69;10573142;28;20109;-76
2022/05/19 04:19:36;;;;;;;4.25;1.70;;;;;;;13.92;60.67;100733.75;10492849;28;20052;-76
2022/05/19 04:24:38;;;;;;;5.13;1.77;;;;;;;13.92;60.32;100733.75;10580316;28;20143;-76
2022/05/19 04:29:39;;;;;;;3.25;1.65;;;;;;;14.04;59.87;100738.63;10576473;28;20044;-78
2022/05/19 04:34:42;;;;;;;3.28;1.70;;;;;;;14.06;60.26;100742.91;10489368;28;20040;-78
2022/05/19 04:39:43;;;;;;;3.50;1.90;;;;;;;14.12;60.02;100741.84;10491105;28;20040;-78
2022/05/19 04:44:45;;;;;;;2.90;2.00;;;;;;;14.29;59.48;100746.53;10562856;28;20078;-78
2022/05/19 04:49:46;;;;;;;3.15;1.70;;;;;;;14.39;59.30;100750.59;10558648;28;20044;-78
2022/05/19 04:54:49;;;;;;;2.63;1.83;;;;;;;14.61;59.30;100748.06;10474063;28;20055;-78
2022/05/19 04:59:51;;;;;;;2.75;1.90;;;;;;;14.60;58.95;100749.81;10561549;28;20035;-77
2022/05/19 05:04:52;;;;;;;4.65;1.85;;;;;;;14.76;58.89;100739.53;10557336;28;20028;-77
2022/05/19 05:09:53;;;;;;;3.53;1.83;;;;;;;14.75;60.34;100737.81;10465313;28;20048;-78
2022/05/19 05:14:55;;;;;;;2.78;1.85;;;;;;;14.93;59.73;100749.50;10549176;28;20036;-78
2022/05/19 05:19:57;;;;;;;6.75;2.22;;;;;;;15.16;59.04;100747.72;10550585;28;20413;-79
2022/05/19 05:24:58;;;;;;;2.97;1.60;;;;;;;15.39;57.75;100743.22;10549895;28;20051;-78
2022/05/19 05:30:00;;;;;;;2.40;1.60;;;;;;;15.55;57.93;100745.28;10550109;28;20409;-78
2022/05/19 05:35:03;;;;;;;2.88;1.73;;;;;;;15.64;56.20;100742.28;10551231;28;20047;-78
2022/05/19 05:40:07;;;;;;;4.03;1.83;;;;;;;15.88;55.63;100751.81;10551930;28;20055;-78
2022/05/19 05:45:09;;;;;;;3.15;1.80;;;;;;;16.14;55.90;100750.72;10467283;28;20052;-78
2022/05/19 05:50:11;;;;;;;6.70;1.70;;;;;;;16.80;53.88;100752.25;10551774;28;20040;-78
2022/05/19 05:55:13;;;;;;;2.28;1.70;;;;;;;17.22;51.85;100753.81;10550940;28;20076;-79
2022/05/19 06:00:15;;;;;;;3.83;1.65;;;;;;;17.67;50.84;100749.88;10549258;28;20045;-78
2022/05/19 06:05:18;;;;;;;3.25;1.48;;;;;;;18.04;50.70;100749.75;10549687;28;20044;-78
2022/05/19 06:10:20;;;;;;;2.70;1.30;;;;;;;18.69;49.46;100760.59;10568257;28;20486;-79
2022/05/19 06:15:21;;;;;;;3.10;1.33;;;;;;;19.36;48.04;100753.31;10568968;28;20043;-79
2022/05/19 06:20:24;;;;;;;4.20;1.30;;;;;;;19.62;47.56;100754.53;10479695;28;20044;-82
2022/05/19 06:25:27;;;;;;;5.55;1.60;;;;;;;19.76;46.74;100748.38;10574601;28;20044;-79
2022/05/19 06:30:30;;;;;;;4.35;1.45;;;;;;;20.14;45.31;100749.66;10573156;28;20101;-79
2022/05/19 06:35:34;;;;;;;2.45;1.17;;;;;;;20.62;46.03;100744.94;10578485;28;20052;-80
2022/05/19 06:40:36;;;;;;;1.92;1.02;;;;;;;20.93;45.16;100745.66;10483902;28;20024;-78
2022/05/19 06:45:37;;;;;;;8.05;1.80;;;;;;;20.91;43.33;100748.44;10569867;28;20047;-79
2022/05/19 06:50:39;;;;;;;3.97;1.48;;;;;;;20.98;42.89;100745.38;10488784;28;20048;-80
2022/05/19 06:55:41;;;;;;;5.25;1.65;;;;;;;21.15;41.65;100738.00;10578985;28;20454;-79
2022/05/19 07:00:43;;;;;;;2.03;1.50;;;;;;;21.51;43.45;100736.56;10579082;28;20032;-78
2022/05/19 07:05:44;;;;;;;3.50;1.30;;;;;;;21.93;41.19;100732.00;10575151;28;20051;-79
2022/05/19 07:10:46;;;;;;;1.83;1.30;;;;;;;22.43;41.13;100733.03;10562566;28;20043;-79
2022/05/19 07:15:47;;;;;;;4.03;1.60;;;;;;;22.95;40.54;100732.03;10556887;28;20048;-78
2022/05/19 07:20:50;;;;;;;3.05;1.23;;;;;;;23.01;40.32;100726.19;10483202;28;20040;-78
2022/05/19 07:25:53;;;;;;;3.67;1.50;;;;;;;22.66;41.05;100713.47;10556854;28;20097;-78
2022/05/19 07:30:55;;;;;;;3.08;1.30;;;;;;;23.35;40.44;100705.81;10558350;28;20036;-79
2022/05/19 07:35:57;;;;;;;1.20;1.02;;;;;;;23.58;38.33;100709.44;10554424;28;20039;-79
2022/05/19 07:41:00;;;;;;;3.13;1.30;;;;;;;23.63;37.97;100695.69;10556213;28;20060;-79
2022/05/19 07:46:03;;;;;;;2.42;1.15;;;;;;;23.94;38.92;100699.59;10471544;28;20048;-79
2022/05/19 07:51:05;;;;;;;2.80;1.42;;;;;;;24.37;37.32;100689.06;10558934;28;20040;-80
2022/05/19 07:56:07;;;;;;;5.88;1.00;;;;;;;24.67;36.22;100671.47;10555591;28;20398;-80
2022/05/19 08:01:08;;;;;;;3.10;1.15;;;;;;;24.80;35.88;100674.88;10552572;28;20518;-78
2022/05/19 08:06:10;;;;;;;3.33;1.00;;;;;;;25.39;33.64;100670.97;10549139;28;20089;-79
2022/05/19 08:11:12;;;;;;;3.50;1.02;;;;;;;26.04;32.53;100659.13;10573321;22;20048;-78
2022/05/19 08:16:14;;;;;;;1.80;0.63;;;;;;;26.29;32.14;100657.81;10531806;28;20047;-76
2022/05/19 08:21:16;;;;;;;2.47;1.02;;;;;;;26.54;30.31;100653.84;10551429;28;20040;-76
2022/05/19 08:26:19;;;;;;;1.50;0.73;;;;;;;26.73;32.01;100649.50;10565426;28;20107;-77
2022/05/19 08:31:23;;;;;;;3.92;0.85;;;;;;;26.82;30.87;100649.53;10561669;28;20112;-77
2022/05/19 08:36:26;;;;;;;0.93;0.60;;;;;;;26.89;30.98;100639.06;10555772;28;20048;-78
2022/05/19 08:41:36;;;;;;;2.50;0.60;;;;;;;26.91;30.60;100637.06;10543367;28;20396;-78
2022/05/19 08:46:43;;;;;;;2.35;0.80;;;;;;;26.78;30.05;100634.63;10524717;28;20102;-78
2022/05/19 08:52:03;;;;;;;1.20;0.60;;;;;;;26.27;29.79;100629.31;10525361;28;20404;-77
2022/05/19 08:57:16;;;;;;;1.67;1.10;;;;;;;26.20;29.59;100629.00;10543576;28;20477;-78
2022/05/19 09:02:39;;;;;;;1.00;0.70;;;;;;;26.25;29.22;100615.13;10543803;28;20044;-77
2022/05/19 09:07:59;;;;;;;1.90;0.70;;;;;;;26.42;28.89;100620.72;10544310;28;20044;-78
2022/05/19 09:13:34;;;;;;;0.70;0.57;;;;;;;26.80;27.63;100623.72;10525438;28;20052;-78
2022/05/19 09:18:39;;;;;;;4.72;1.02;;;;;;;26.80;29.70;100610.22;10508211;28;20471;-77
2022/05/19 09:23:41;;;;;;;1.75;0.80;;;;;;;26.90;30.57;100611.09;10526864;28;20043;-78
2022/05/19 09:28:44;;;;;;;3.05;0.75;;;;;;;26.85;28.43;100606.09;10543672;28;20101;-77
2022/05/19 09:33:47;;;;;;;3.50;0.90;;;;;;;27.07;27.88;100606.84;10545372;28;20051;-77
2022/05/19 09:38:59;;;;;;;2.28;0.70;;;;;;;26.97;26.58;100606.00;10542273;28;20044;-77
2022/05/19 09:44:03;;;;;;;3.15;0.98;;;;;;;27.18;28.68;100598.63;10545898;28;20040;-77
2022/05/19 09:49:15;;;;;;;3.15;1.10;;;;;;;27.24;28.00;100606.16;10509794;28;20408;-78
2022/05/19 09:54:18;;;;;;;2.58;0.80;;;;;;;27.85;29.95;100607.69;10533765;28;20458;-78
2022/05/19 09:59:32;;;;;;;1.30;0.80;;;;;;;27.39;26.42;100595.78;10536655;28;20048;-78
2022/05/19 10:04:39;;;;;;;1.95;0.90;;;;;;;27.72;27.56;100594.50;10560422;28;20089;-78
2022/05/19 10:09:43;;;;;;;2.33;0.90;;;;;;;27.39;26.31;100593.09;10558202;28;20047;-78
2022/05/19 10:14:51;;;;;;;2.13;0.93;;;;;;;27.61;26.66;100587.38;10550155;28;20032;-78
2022/05/19 10:20:17;;;;;;;2.58;0.80;;;;;;;27.45;25.60;100580.84;10549864;28;20493;-78
2022/05/19 10:26:02;;;;;;;2.08;0.85;;;;;;;27.63;26.18;100588.09;10536749;28;20119;-78
2022/05/19 10:31:33;;;;;;;1.58;0.73;;;;;;;28.19;26.86;100574.69;10562925;28;20447;-78
2022/05/19 10:36:50;;;;;;;8.93;1.15;;;;;;;28.14;26.02;100570.59;10559694;28;20123;-78
2022/05/19 10:42:24;;;;;;;4.00;1.17;;;;;;;28.13;26.34;100565.34;10540291;28;20036;-78
2022/05/19 10:47:50;;;;;;;1.70;0.65;;;;;;;28.26;24.46;100554.19;10558282;28;20043;-78
2022/05/19 10:53:29;;;;;;;3.63;1.08;;;;;;;28.56;27.20;100553.06;10560823;28;20054;-78
2022/05/19 10:59:13;;;;;;;1.67;0.60;;;;;;;28.58;24.98;100538.34;10564744;28;20050;-77
2022/05/19 11:04:30;;;;;;;1.80;0.75;;;;;;;28.20;23.88;100530.44;10539968;28;20056;-78
2022/05/19 11:10:04;;;;;;;2.47;0.70;;;;;;;28.04;25.85;100525.69;10559013;28;20512;-78
2022/05/19 11:15:25;;;;;;;1.67;0.77;;;;;;;27.90;25.19;100527.91;10552660;28;20492;-77
2022/05/19 11:20:31;;;;;;;2.45;0.70;;;;;;;28.51;24.67;100512.94;10551087;28;20052;-77
2022/05/19 11:31:45;;;;;;;1.90;0.50;;;;;;;27.83;25.27;100494.34;10551392;28;20036;-77
2022/05/19 11:37:09;;;;;;;4.43;1.33;;;;;;;27.89;27.35;100504.59;10545064;28;20056;-78
2022/05/19 11:42:47;;;;;;;4.70;1.30;;;;;;;28.26;25.53;100486.59;10561996;28;20113;-78
2022/05/19 11:59:08;;;;;;;1.58;0.82;;;;;;;27.88;26.30;100480.41;10549333;28;20489;-79
2022/05/19 12:04:25;;;;;;;1.17;0.77;;;;;;;27.92;26.10;100473.69;10529069;28;20032;-77
2022/05/19 12:09:41;;;;;;;1.92;0.80;;;;;;;27.65;26.77;100472.66;10547245;28;20044;-78
2022/05/19 12:14:47;;;;;;;3.05;0.80;;;;;;;28.07;26.65;100466.81;10530719;28;20048;-77
2022/05/19 12:19:55;;;;;;;1.58;0.57;;;;;;;28.64;24.97;100444.91;10545621;28;20404;-77
2022/05/19 12:25:00;;;;;;;6.03;0.73;;;;;;;28.58;27.05;100440.16;10528659;28;20048;-77
2022/05/19 12:35:39;;;;;;;2.72;0.90;;;;;;;28.72;25.66;100441.44;10546955;28;20048;-77
2022/05/19 12:40:43;;;;;;;3.42;0.70;;;;;;;28.20;25.86;100425.03;10546713;28;20052;-77
2022/05/19 12:45:48;;;;;;;2.20;0.73;;;;;;;28.47;27.51;100426.88;10545532;28;20044;-77
2022/05/19 12:51:09;;;;;;;1.77;0.80;;;;;;;27.95;27.07;100426.63;10545204;28;20059;-77
2022/05/19 12:56:44;;;;;;;1.45;0.68;;;;;;;28.07;26.16;100422.72;10528434;28;20044;-77
2022/05/19 13:01:51;;;;;;;2.83;0.80;;;;;;;28.22;26.90;100415.78;10541167;28;20048;-78
2022/05/19 13:06:59;;;;;;;1.48;0.70;;;;;;;28.30;26.32;100417.72;10567548;28;20044;-77
2022/05/19 13:12:26;;;;;;;2.65;0.70;;;;;;;28.30;28.14;100412.31;10566450;28;20531;-78
2022/05/19 13:17:44;;;;;;;2.33;0.82;;;;;;;28.91;26.12;100403.41;10516219;28;20126;-78
2022/05/19 13:22:58;;;;;;;1.38;0.60;;;;;;;28.56;26.89;100388.09;10531598;28;20061;-78
2022/05/19 13:33:38;;;;;;;2.25;0.80;;;;;;;28.89;27.79;100391.88;10549043;28;20062;-78
2022/05/19 13:38:41;;;;;;;1.30;0.50;;;;;;;28.87;25.27;100370.41;10550601;28;20070;-78
2022/05/19 13:43:48;;;;;;;2.65;0.80;;;;;;;28.53;25.53;100362.19;10548466;28;20028;-78
2022/05/19 13:48:57;;;;;;;2.28;0.70;;;;;;;28.33;27.75;100357.91;10548616;28;20043;-78
2022/05/19 13:54:01;;;;;;;4.13;0.77;;;;;;;28.58;26.53;100350.91;10530644;28;20063;-78
2022/05/19 13:59:05;;;;;;;1.77;0.70;;;;;;;28.73;24.64;100354.75;10546424;28;20044;-78
2022/05/19 14:04:11;;;;;;;1.38;0.68;;;;;;;28.49;25.23;100341.88;10544964;28;20098;-77
2022/05/19 14:09:40;;;;;;;3.28;0.77;;;;;;;28.85;23.77;100350.75;10531896;28;20101;-78
2022/05/19 14:14:58;;;;;;;0.80;0.55;;;;;;;28.84;25.19;100335.53;10545612;28;20090;-79
2022/05/19 14:20:04;;;;;;;1.50;0.60;;;;;;;28.79;24.89;100334.31;10533156;28;20044;-79
2022/05/19 14:25:09;;;;;;;1.73;0.70;;;;;;;29.19;23.98;100331.03;10554846;28;20036;-79
2022/05/19 14:30:17;;;;;;;1.75;0.80;;;;;;;29.12;24.98;100321.84;10556007;28;20043;-79
2022/05/19 14:35:22;;;;;;;3.05;0.90;;;;;;;29.04;24.27;100313.69;10555445;28;20036;-79
2022/05/19 14:45:53;;;;;;;2.83;0.80;;;;;;;28.81;25.89;100292.53;10545377;28;19919;-78
2022/05/19 14:50:57;;;;;;;1.88;0.70;;;;;;;29.34;26.92;100286.06;10559083;28;20047;-78
2022/05/19 14:56:04;;;;;;;3.70;1.25;;;;;;;29.35;26.63;100271.53;10541581;28;20062;-78
2022/05/19 15:01:06;;;;;;;2.30;0.90;;;;;;;29.77;26.05;100264.38;10559386;28;20489;-79
2022/05/19 15:06:08;;;;;;;3.50;0.80;;;;;;;29.54;26.16;100262.28;10556962;28;20044;-79
2022/05/19 15:11:12;;;;;;;1.40;0.70;;;;;;;29.59;25.97;100259.09;10528985;28;20438;-79
2022/05/19 15:16:14;;;;;;;1.50;0.80;;;;;;;29.53;25.63;100267.84;10545768;28;20044;-79
2022/05/19 15:21:16;;;;;;;1.35;0.75;;;;;;;29.17;26.60;100259.94;10540217;28;20052;-79
2022/05/19 15:26:18;;;;;;;2.38;0.85;;;;;;;29.21;25.60;100246.94;10543175;28;20070;-79
2022/05/19 15:31:20;;;;;;;1.38;0.68;;;;;;;29.16;26.43;100245.56;10560751;28;20117;-79
2022/05/19 15:36:23;;;;;;;1.63;1.13;;;;;;;29.00;26.45;100247.34;10555351;28;20043;-77
2022/05/19 15:41:25;;;;;;;3.17;1.20;;;;;;;28.91;27.15;100230.22;10529897;28;20056;-78
2022/05/19 15:46:26;;;;;;;1.95;0.70;;;;;;;29.27;25.15;100222.78;10553017;28;20051;-78
2022/05/19 15:51:28;;;;;;;2.20;0.85;;;;;;;29.70;26.30;100220.00;10529956;28;20052;-78
2022/05/19 15:56:32;;;;;;;1.98;1.00;;;;;;;30.11;25.60;100212.72;10550067;28;20447;-77
2022/05/19 16:01:33;;;;;;;2.53;0.60;;;;;;;29.97;25.14;100216.97;10533205;28;20066;-77
2022/05/19 16:06:35;;;;;;;1.45;0.82;;;;;;;29.21;27.10;100218.00;10534856;28;20047;-78
2022/05/19 16:11:37;;;;;;;2.28;0.80;;;;;;;28.50;28.15;100213.75;10538975;28;20058;-78
2022/05/19 16:16:39;;;;;;;2.03;0.90;;;;;;;28.09;27.51;100218.03;10557547;28;20052;-78
2022/05/19 16:21:41;;;;;;;2.13;0.80;;;;;;;27.58;27.95;100222.25;10536920;28;20047;-78
2022/05/19 16:26:43;;;;;;;2.45;1.00;;;;;;;27.33;30.14;100221.16;10515876;28;20059;-78
2022/05/19 16:31:45;;;;;;;2.45;0.88;;;;;;;27.38;29.52;100224.25;10538364;28;20465;-78
2022/05/19 16:36:46;;;;;;;2.15;1.70;;;;;;;26.77;30.65;100217.59;10554183;28;20056;-78
2022/05/19 16:41:48;;;;;;;1.80;1.30;;;;;;;26.46;31.49;100217.00;10555226;28;20048;-78
2022/05/19 16:46:50;;;;;;;2.75;1.23;;;;;;;26.40;31.79;100218.41;10563514;28;20097;-78
2022/05/19 16:51:52;;;;;;;2.25;0.98;;;;;;;26.43;32.14;100219.97;10571118;28;20093;-78
2022/05/19 17:02:14;;;;;;;1.70;1.10;;;;;;;25.96;34.65;100219.06;10575083;28;20044;-78
2022/05/19 17:07:17;;;;;;;1.60;1.20;;;;;;;26.01;34.13;100209.53;10567524;28;20044;-79
2022/05/19 17:12:19;;;;;;;1.60;1.02;;;;;;;25.95;34.22;100203.91;10548944;28;20123;-78
2022/05/19 17:17:24;;;;;;;2.20;0.88;;;;;;;25.91;34.68;100204.16;10532532;28;20048;-78
2022/05/19 17:22:25;;;;;;;2.05;1.10;;;;;;;25.99;35.37;100200.78;10553962;28;20085;-79
2022/05/19 17:27:27;;;;;;;2.15;0.98;;;;;;;26.03;34.01;100198.63;10532834;28;20051;-79
2022/05/19 17:32:29;;;;;;;4.53;1.52;;;;;;;26.00;33.46;100204.31;10529851;28;20098;-79
2022/05/19 17:37:31;;;;;;;3.42;1.10;;;;;;;25.67;34.32;100214.47;10529574;28;20077;-77
2022/05/19 17:42:35;;;;;;;1.17;0.93;;;;;;;25.67;34.16;100214.47;10514316;28;20062;-78
2022/05/19 17:47:37;;;;;;;3.13;1.80;;;;;;;25.56;34.76;100217.31;10514087;28;20044;-78
2022/05/19 17:52:40;;;;;;;3.75;2.75;;;;;;;25.46;35.18;100222.69;10557369;28;20051;-79
2022/05/19 17:57:44;;;;;;;2.10;1.90;;;;;;;25.32;35.42;100223.06;10558735;28;20048;-80
2022/05/19 18:02:46;;;;;;;3.17;1.33;;;;;;;25.13;36.04;100226.59;10556734;28;20032;-79
2022/05/19 18:07:48;;;;;;;1.27;1.00;;;;;;;24.94;36.51;100227.34;10543176;28;20040;-79
2022/05/19 18:12:52;;;;;;;2.35;1.42;;;;;;;24.66;36.90;100228.94;10541268;28;20075;-79
2022/05/19 18:23:17;;;;;;;2.13;1.35;;;;;;;24.22;37.77;100219.34;10557573;28;20070;-78
2022/05/19 18:28:22;;;;;;;4.10;1.30;;;;;;;23.98;37.55;100220.41;10563066;28;20186;-79
2022/05/19 18:33:24;;;;;;;2.83;1.40;;;;;;;23.70;37.96;100221.06;10566143;28;20044;-79
2022/05/19 18:38:34;;;;;;;3.60;1.50;;;;;;;23.51;39.13;100216.34;10573083;28;20048;-79
2022/05/19 18:48:59;;;;;;;2.90;1.58;;;;;;;23.01;40.59;100192.66;10565212;28;20040;-79
2022/05/19 18:54:02;;;;;;;2.78;1.67;;;;;;;22.81;40.47;100190.72;10572791;28;20100;-77
2022/05/19 18:59:05;;;;;;;2.13;1.23;;;;;;;22.70;41.13;100188.91;10572036;28;20075;-78
2022/05/19 19:04:12;;;;;;;;;;;;;;;22.54;41.34;100194.63;10570738;28;20048;-78
2022/05/19 19:09:14;;;;;;;4.88;1.38;;;;;;;22.50;40.84;100195.84;10562237;28;20011;-78
2022/05/19 19:14:16;;;;;;;2.58;1.52;;;;;;;22.30;42.26;100188.50;10549813;28;20461;-78
2022/05/19 19:19:17;;;;;;;4.90;1.35;;;;;;;22.19;44.36;100212.63;10513573;28;20528;-79
2022/05/19 19:24:20;;;;;;;2.25;1.35;;;;;;;22.00;44.37;100227.38;10533409;28;20036;-78
2022/05/19 19:29:21;;;;;;;2.22;1.27;;;;;;;22.01;44.24;100222.88;10528785;28;20416;-78
2022/05/19 19:34:23;;;;;;;4.82;2.28;;;;;;;21.84;44.76;100232.19;10547717;28;20036;-78
2022/05/19 19:39:32;;;;;;;3.00;2.00;;;;;;;21.47;46.45;100239.41;10549418;28;20052;-78
2022/05/19 19:44:38;;;;;;;3.13;1.52;;;;;;;21.21;46.15;100231.47;10530927;28;20040;-77
2022/05/19 19:49:40;;;;;;;2.30;1.48;;;;;;;21.08;45.92;100227.97;10527156;28;20138;-78
2022/05/19 19:54:42;;;;;;;2.22;1.50;;;;;;;20.98;45.39;100225.09;10532849;28;20070;-78
2022/05/19 19:59:43;;;;;;;1.55;1.35;;;;;;;20.89;44.85;100210.59;10550407;28;20048;-78
2022/05/19 20:04:45;;;;;;;2.35;1.38;;;;;;;20.85;44.69;100218.91;10547264;28;20085;-78
2022/05/19 20:09:46;;;;;;;3.47;1.30;;;;;;;20.72;43.96;100224.31;10576160;22;20133;-81
2022/05/19 20:14:54;;;;;;;2.53;1.48;;;;;;;20.66;45.22;100230.06;10479966;28;20051;-82
2022/05/19 20:19:57;;;;;;;2.45;1.45;;;;;;;20.66;46.14;100230.06;10568392;28;20085;-82
2022/05/19 20:24:58;;;;;;;1.40;1.20;;;;;;;20.61;46.53;100234.88;10564769;28;20044;-81
2022/05/19 20:30:00;;;;;;;2.22;1.58;;;;;;;20.59;46.28;100235.00;10566242;28;20066;-80
2022/05/19 20:35:02;;;;;;;2.72;1.60;;;;;;;20.62;45.42;100244.59;10490143;28;20040;-81
2022/05/19 20:40:07;;;;;;;2.22;1.60;;;;;;;20.57;45.75;100252.94;10474772;28;20044;-83
2022/05/19 20:45:13;;;;;;;2.28;1.65;;;;;;;20.55;46.18;100272.72;10483507;28;20032;-82
2022/05/19 20:50:16;;;;;;;2.05;1.85;;;;;;;20.79;45.63;100284.34;10483524;28;20052;-82
2022/05/19 20:55:17;;;;;;;7.68;2.10;;;;;;;21.07;43.71;100319.78;10573922;28;20044;-81
2022/05/19 21:00:20;;;;;;;10.65;1.40;;;;;;;22.10;42.85;100319.41;10490985;28;20024;-79
2022/05/19 21:05:22;;;;;;;10.70;1.35;;;;;;;22.83;45.10;100298.66;10593068;28;20040;-81
2022/05/19 21:10:23;;;;;;;16.08;1.60;;;;;;;22.89;46.32;100301.75;10506939;28;20115;-82
2022/05/19 21:15:25;;;;;;;5.75;1.50;;;;;;;22.82;48.19;100310.34;10581929;28;20036;-81
2022/05/19 21:20:27;;;;;;;9.65;1.90;;;;;;;22.80;49.72;100321.22;10490098;28;20061;-82
2022/05/19 21:30:49;;;;;;;12.05;1.70;;;;;;;22.24;56.72;100337.13;10578934;28;20130;-83
2022/05/19 21:35:51;;;;;;;18.27;2.67;;;;;;;21.87;59.92;100339.00;10575120;28;20107;-82
2022/05/19 21:40:54;;;;;;;12.63;1.90;;;;;;;21.76;61.69;100331.75;10574899;28;20069;-82
2022/05/19 21:45:58;;;;;;;7.45;2.10;;;;;;;21.45;64.08;100377.75;10489560;28;20129;-82
2022/05/19 21:56:20;;;;;;;7.63;1.90;;;;;;;21.14;65.97;100391.44;10585102;28;20069;-82
2022/05/19 22:01:23;;;;;;;5.85;1.33;;;;;;;21.07;66.67;100373.25;10591913;28;20043;-82
2022/05/19 22:11:45;;;;;;;3.20;1.40;;;;;;;20.88;67.48;100331.78;10591598;28;20103;-82
2022/05/19 22:16:46;;;;;;;6.32;1.58;;;;;;;20.89;68.10;100322.81;10586194;28;20036;-81
2022/05/19 22:21:48;;;;;;;6.00;1.70;;;;;;;20.81;68.96;100302.94;10475096;28;20044;-81
2022/05/19 22:26:50;;;;;;;5.53;1.70;;;;;;;20.60;70.21;100290.13;10485413;28;20101;-81
2022/05/19 22:31:51;;;;;;;5.15;1.38;;;;;;;20.44;71.17;100273.41;10570274;28;20050;-82
2022/05/19 22:36:53;;;;;;;2.42;1.25;;;;;;;20.44;70.72;100273.41;10574720;28;20040;-82
2022/05/19 22:41:55;;;;;;;2.28;1.45;;;;;;;20.44;70.52;100278.75;10577769;28;20056;-82
2022/05/19 22:52:21;;;;;;;3.42;1.50;;;;;;;20.55;70.36;100281.56;10567097;28;20054;-79
2022/05/19 22:57:23;;;;;;;3.13;1.65;;;;;;;20.24;72.20;100258.78;10549340;28;20052;-78
2022/05/19 23:02:24;;;;;;;3.05;1.80;;;;;;;20.42;70.68;100248.63;10562609;28;20109;-80
2022/05/19 23:07:26;;;;;;;4.15;1.50;;;;;;;20.40;71.87;100223.84;10561223;28;20040;-79
2022/05/19 23:12:32;;;;;;;7.72;1.60;;;;;;;20.49;71.01;100223.22;10473717;28;20093;-79
2022/05/19 23:17:34;;;;;;;1.98;1.50;;;;;;;20.29;71.73;100215.75;10561456;28;20047;-79
2022/05/19 23:22:36;;;;;;;3.80;1.30;;;;;;;20.00;73.70;100239.06;10564579;28;20040;-79
2022/05/19 23:27:38;;;;;;;2.00;1.45;;;;;;;19.87;74.07;100255.03;10477825;28;20044;-79
2022/05/19 23:38:13;;;;;;;1.95;1.35;;;;;;;19.98;73.96;100307.72;10301681;28;20103;-79
2022/05/19 23:43:14;;;;;;;3.08;1.45;;;;;;;20.08;72.83;100319.47;10285805;28;20504;-79
2022/05/19 23:48:18;;;;;;;5.32;1.63;;;;;;;19.93;72.37;100333.84;10302117;28;20062;-79
2022/05/19 23:53:20;;;;;;;5.20;1.40;;;;;;;19.75;73.53;100350.09;10303499;28;20089;-79
2022/05/19 23:58:22;;;;;;;2.05;1.27;;;;;;;19.73;74.21;100351.97;10308474;28;20085;-80
